sensor_id;sensor_type;location;lat;lon;timestamp;temperature;humidity
44767;DHT22;30487;48.716;9.272;2024-03-23T00:56:13;11.60;93.80
44767;DHT22;30487;48.716;9.272;2024-03-23T00:58:38;11.60;93.60
44767;DHT22;30487;48.716;9.272;2024-03-23T01:01:04;11.60;93.60
44767;DHT22;30487;48.716;9.272;2024-03-23T01:03:30;11.70;93.70
44767;DHT22;30487;48.716;9.272;2024-03-23T01:06:02;11.70;93.60
44767;DHT22;30487;48.716;9.272;2024-03-23T01:08:29;11.70;93.60
44767;DHT22;30487;48.716;9.272;2024-03-23T01:10:59;11.70;93.60
44767;DHT22;30487;48.716;9.272;2024-03-23T01:13:25;11.70;93.70
44767;DHT22;30487;48.716;9.272;2024-03-23T01:15:53;11.80;93.70
44767;DHT22;30487;48.716;9.272;2024-03-23T01:18:20;11.80;93.70
44767;DHT22;30487;48.716;9.272;2024-03-23T01:20:46;11.70;93.80
44767;DHT22;30487;48.716;9.272;2024-03-23T01:23:12;11.60;93.80
44767;DHT22;30487;48.716;9.272;2024-03-23T01:25:38;11.60;94.00
44767;DHT22;30487;48.716;9.272;2024-03-23T01:28:04;11.60;94.00
44767;DHT22;30487;48.716;9.272;2024-03-23T01:30:29;11.70;94.00
44767;DHT22;30487;48.716;9.272;2024-03-23T01:32:55;11.70;94.00
44767;DHT22;30487;48.716;9.272;2024-03-23T01:35:21;11.70;94.10
44767;DHT22;30487;48.716;9.272;2024-03-23T01:37:47;11.70;94.20
44767;DHT22;30487;48.716;9.272;2024-03-23T01:40:12;11.70;94.20
44767;DHT22;30487;48.716;9.272;2024-03-23T01:42:40;11.70;94.30
44767;DHT22;30487;48.716;9.272;2024-03-23T01:45:07;11.70;94.30
44767;DHT22;30487;48.716;9.272;2024-03-23T01:47:34;11.80;94.20
44767;DHT22;30487;48.716;9.272;2024-03-23T01:49:59;11.90;94.30
44767;DHT22;30487;48.716;9.272;2024-03-23T01:52:28;11.90;94.30
44767;DHT22;30487;48.716;9.272;2024-03-23T01:54:55;12.00;94.20
44767;DHT22;30487;48.716;9.272;2024-03-23T01:57:21;12.00;94.20
44767;DHT22;30487;48.716;9.272;2024-03-23T01:59:47;12.10;94.20
44767;DHT22;30487;48.716;9.272;2024-03-23T02:02:13;12.00;94.20
44767;DHT22;30487;48.716;9.272;2024-03-23T02:04:39;12.00;94.30
44767;DHT22;30487;48.716;9.272;2024-03-23T02:07:06;12.00;94.30
44767;DHT22;30487;48.716;9.272;2024-03-23T02:09:33;12.10;94.40
44767;DHT22;30487;48.716;9.272;2024-03-23T02:11:58;12.00;94.50
44767;DHT22;30487;48.716;9.272;2024-03-23T02:14:24;11.90;94.70
44767;DHT22;30487;48.716;9.272;2024-03-23T02:16:49;12.00;94.70
44767;DHT22;30487;48.716;9.272;2024-03-23T02:19:15;11.90;94.90
44767;DHT22;30487;48.716;9.272;2024-03-23T02:21:40;11.90;95.00
44767;DHT22;30487;48.716;9.272;2024-03-23T02:24:06;11.80;95.20
44767;DHT22;30487;48.716;9.272;2024-03-23T02:26:32;11.90;95.20
44767;DHT22;30487;48.716;9.272;2024-03-23T02:28:57;11.90;95.20
44767;DHT22;30487;48.716;9.272;2024-03-23T02:31:23;11.90;95.30
44767;DHT22;30487;48.716;9.272;2024-03-23T02:33:48;11.80;95.60
44767;DHT22;30487;48.716;9.272;2024-03-23T02:36:14;11.80;95.80
44767;DHT22;30487;48.716;9.272;2024-03-23T02:38:39;11.80;95.80
44767;DHT22;30487;48.716;9.272;2024-03-23T02:41:05;11.80;96.00
44767;DHT22;30487;48.716;9.272;2024-03-23T02:43:31;11.90;96.10
44767;DHT22;30487;48.716;9.272;2024-03-23T02:45:57;11.90;96.20
44767;DHT22;30487;48.716;9.272;2024-03-23T02:48:22;11.80;96.50
44767;DHT22;30487;48.716;9.272;2024-03-23T02:50:49;11.90;96.70
44767;DHT22;30487;48.716;9.272;2024-03-23T02:53:14;11.90;96.80
44767;DHT22;30487;48.716;9.272;2024-03-23T02:55:40;11.90;96.90
44767;DHT22;30487;48.716;9.272;2024-03-23T02:58:06;11.80;97.10
44767;DHT22;30487;48.716;9.272;2024-03-23T03:00:31;11.80;97.40
44767;DHT22;30487;48.716;9.272;2024-03-23T03:02:57;11.80;97.50
44767;DHT22;30487;48.716;9.272;2024-03-23T03:05:22;11.80;97.50
44767;DHT22;30487;48.716;9.272;2024-03-23T03:07:48;11.80;97.60
44767;DHT22;30487;48.716;9.272;2024-03-23T03:10:14;11.80;97.80
44767;DHT22;30487;48.716;9.272;2024-03-23T03:12:39;11.80;97.80
44767;DHT22;30487;48.716;9.272;2024-03-23T03:15:06;11.90;97.90
44767;DHT22;30487;48.716;9.272;2024-03-23T03:17:31;11.90;98.10
44767;DHT22;30487;48.716;9.272;2024-03-23T03:19:57;11.80;98.30
44767;DHT22;30487;48.716;9.272;2024-03-23T03:22:22;11.80;98.40
44767;DHT22;30487;48.716;9.272;2024-03-23T03:24:49;11.80;98.40
44767;DHT22;30487;48.716;9.272;2024-03-23T03:27:14;11.80;98.60
44767;DHT22;30487;48.716;9.272;2024-03-23T03:29:40;11.80;98.80
44767;DHT22;30487;48.716;9.272;2024-03-23T03:32:06;11.70;98.90
44767;DHT22;30487;48.716;9.272;2024-03-23T03:34:31;11.70;98.90
44767;DHT22;30487;48.716;9.272;2024-03-23T03:36:57;11.80;99.00
44767;DHT22;30487;48.716;9.272;2024-03-23T03:39:23;11.70;99.10
44767;DHT22;30487;48.716;9.272;2024-03-23T03:41:49;11.80;99.30
44767;DHT22;30487;48.716;9.272;2024-03-23T03:44:15;11.80;99.40
44767;DHT22;30487;48.716;9.272;2024-03-23T03:46:41;11.90;99.50
44767;DHT22;30487;48.716;9.272;2024-03-23T03:49:06;11.80;99.80
44767;DHT22;30487;48.716;9.272;2024-03-23T03:51:32;11.80;99.70
44767;DHT22;30487;48.716;9.272;2024-03-23T03:53:57;11.90;99.90
44767;DHT22;30487;48.716;9.272;2024-03-23T03:56:23;11.90;99.90
44767;DHT22;30487;48.716;9.272;2024-03-23T03:58:49;11.80;99.90
44767;DHT22;30487;48.716;9.272;2024-03-23T04:01:14;11.90;99.90
44767;DHT22;30487;48.716;9.272;2024-03-23T04:03:40;11.90;99.90
44767;DHT22;30487;48.716;9.272;2024-03-23T04:06:09;12.00;99.90
44767;DHT22;30487;48.716;9.272;2024-03-23T04:08:35;11.90;99.90
44767;DHT22;30487;48.716;9.272;2024-03-23T04:11:00;12.00;99.90
44767;DHT22;30487;48.716;9.272;2024-03-23T04:13:26;12.00;99.90
44767;DHT22;30487;48.716;9.272;2024-03-23T04:15:55;12.00;99.90
44767;DHT22;30487;48.716;9.272;2024-03-23T04:18:21;12.00;99.90
44767;DHT22;30487;48.716;9.272;2024-03-23T04:20:48;12.00;99.90
44767;DHT22;30487;48.716;9.272;2024-03-23T04:23:13;11.90;99.90
44767;DHT22;30487;48.716;9.272;2024-03-23T04:25:39;11.90;99.90
44767;DHT22;30487;48.716;9.272;2024-03-23T04:28:04;11.90;99.90
44767;DHT22;30487;48.716;9.272;2024-03-23T04:30:30;11.90;99.90
44767;DHT22;30487;48.716;9.272;2024-03-23T04:32:57;11.90;99.90
44767;DHT22;30487;48.716;9.272;2024-03-23T04:35:24;12.00;99.90
44767;DHT22;30487;48.716;9.272;2024-03-23T04:37:51;12.00;99.90
44767;DHT22;30487;48.716;9.272;2024-03-23T04:40:18;11.90;99.90
44767;DHT22;30487;48.716;9.272;2024-03-23T04:42:44;11.90;99.90
44767;DHT22;30487;48.716;9.272;2024-03-23T04:45:09;11.90;99.90
44767;DHT22;30487;48.716;9.272;2024-03-23T04:47:36;11.80;99.90
44767;DHT22;30487;48.716;9.272;2024-03-23T04:50:03;11.90;99.90
44767;DHT22;30487;48.716;9.272;2024-03-23T04:52:29;11.80;99.90
44767;DHT22;30487;48.716;9.272;2024-03-23T04:54:55;11.70;99.90
44767;DHT22;30487;48.716;9.272;2024-03-23T04:57:20;11.60;99.90
44767;DHT22;30487;48.716;9.272;2024-03-23T04:59:46;11.40;99.90
44767;DHT22;30487;48.716;9.272;2024-03-23T05:02:13;11.40;99.90
44767;DHT22;30487;48.716;9.272;2024-03-23T05:04:38;11.40;99.90
44767;DHT22;30487;48.716;9.272;2024-03-23T05:07:04;11.40;99.90
44767;DHT22;30487;48.716;9.272;2024-03-23T05:09:30;11.30;99.90
44767;DHT22;30487;48.716;9.272;2024-03-23T05:11:56;11.30;99.90
44767;DHT22;30487;48.716;9.272;2024-03-23T05:14:22;11.20;99.90
44767;DHT22;30487;48.716;9.272;2024-03-23T05:16:47;11.00;99.90
44767;DHT22;30487;48.716;9.272;2024-03-23T05:19:13;10.90;99.90
44767;DHT22;30487;48.716;9.272;2024-03-23T05:21:39;10.80;99.90
44767;DHT22;30487;48.716;9.272;2024-03-23T05:24:05;10.80;99.90
44767;DHT22;30487;48.716;9.272;2024-03-23T05:26:30;10.70;99.90
44767;DHT22;30487;48.716;9.272;2024-03-23T05:28:56;10.60;99.90
44767;DHT22;30487;48.716;9.272;2024-03-23T05:31:29;10.60;99.90
44767;DHT22;30487;48.716;9.272;2024-03-23T05:33:55;10.50;99.90
44767;DHT22;30487;48.716;9.272;2024-03-23T05:36:21;10.50;99.90
44767;DHT22;30487;48.716;9.272;2024-03-23T05:38:47;10.50;99.90
44767;DHT22;30487;48.716;9.272;2024-03-23T05:41:13;10.40;99.90
44767;DHT22;30487;48.716;9.272;2024-03-23T05:43:38;10.30;99.90
44767;DHT22;30487;48.716;9.272;2024-03-23T05:46:04;10.30;99.90
44767;DHT22;30487;48.716;9.272;2024-03-23T05:48:38;10.30;99.90
44767;DHT22;30487;48.716;9.272;2024-03-23T05:51:04;10.20;99.90
44767;DHT22;30487;48.716;9.272;2024-03-23T05:53:29;10.20;99.90
44767;DHT22;30487;48.716;9.272;2024-03-23T05:56:02;10.20;99.90
44767;DHT22;30487;48.716;9.272;2024-03-23T05:58:32;10.20;99.90
44767;DHT22;30487;48.716;9.272;2024-03-23T06:00:58;10.30;99.90
44767;DHT22;30487;48.716;9.272;2024-03-23T06:03:25;10.50;99.90
44767;DHT22;30487;48.716;9.272;2024-03-23T06:05:52;10.50;99.90
44767;DHT22;30487;48.716;9.272;2024-03-23T06:08:18;10.50;99.90
44767;DHT22;30487;48.716;9.272;2024-03-23T06:10:45;10.60;99.90
44767;DHT22;30487;48.716;9.272;2024-03-23T06:13:11;10.60;99.90
44767;DHT22;30487;48.716;9.272;2024-03-23T06:15:37;10.60;99.90
44767;DHT22;30487;48.716;9.272;2024-03-23T06:18:03;10.60;99.90
44767;DHT22;30487;48.716;9.272;2024-03-23T06:20:30;10.60;99.90
44767;DHT22;30487;48.716;9.272;2024-03-23T06:22:56;10.60;99.90
44767;DHT22;30487;48.716;9.272;2024-03-23T06:25:21;10.60;99.90
44767;DHT22;30487;48.716;9.272;2024-03-23T06:27:47;10.50;99.90
44767;DHT22;30487;48.716;9.272;2024-03-23T06:30:12;10.50;99.90
44767;DHT22;30487;48.716;9.272;2024-03-23T06:32:38;10.50;99.90
44767;DHT22;30487;48.716;9.272;2024-03-23T06:35:04;10.50;99.90
44767;DHT22;30487;48.716;9.272;2024-03-23T06:37:34;10.40;99.90
44767;DHT22;30487;48.716;9.272;2024-03-23T06:39:59;10.40;99.90
44767;DHT22;30487;48.716;9.272;2024-03-23T06:42:25;10.40;99.90
44767;DHT22;30487;48.716;9.272;2024-03-23T06:44:50;10.40;99.90
44767;DHT22;30487;48.716;9.272;2024-03-23T06:47:16;10.40;99.90
44767;DHT22;30487;48.716;9.272;2024-03-23T06:49:42;10.40;99.90
44767;DHT22;30487;48.716;9.272;2024-03-23T06:52:08;10.30;99.90
44767;DHT22;30487;48.716;9.272;2024-03-23T06:54:33;10.40;99.90
44767;DHT22;30487;48.716;9.272;2024-03-23T06:56:59;10.40;99.90
44767;DHT22;30487;48.716;9.272;2024-03-23T06:59:24;10.40;99.90
44767;DHT22;30487;48.716;9.272;2024-03-23T07:01:50;10.30;99.90
44767;DHT22;30487;48.716;9.272;2024-03-23T07:04:15;10.30;99.90
44767;DHT22;30487;48.716;9.272;2024-03-23T07:06:45;10.40;99.90
44767;DHT22;30487;48.716;9.272;2024-03-23T07:09:11;10.40;99.90
44767;DHT22;30487;48.716;9.272;2024-03-23T07:11:38;10.40;99.90
44767;DHT22;30487;48.716;9.272;2024-03-23T07:14:03;10.40;99.90
44767;DHT22;30487;48.716;9.272;2024-03-23T07:16:29;10.40;99.90
44767;DHT22;30487;48.716;9.272;2024-03-23T07:18:55;10.40;99.90
44767;DHT22;30487;48.716;9.272;2024-03-23T07:21:21;10.50;99.90
44767;DHT22;30487;48.716;9.272;2024-03-23T07:23:47;10.60;99.90
44767;DHT22;30487;48.716;9.272;2024-03-23T07:26:13;10.60;99.90
44767;DHT22;30487;48.716;9.272;2024-03-23T07:28:39;10.70;99.90
44767;DHT22;30487;48.716;9.272;2024-03-23T07:31:10;10.80;99.90
44767;DHT22;30487;48.716;9.272;2024-03-23T07:33:37;10.90;99.90
44767;DHT22;30487;48.716;9.272;2024-03-23T07:36:04;10.90;99.90
44767;DHT22;30487;48.716;9.272;2024-03-23T07:38:30;10.90;99.90
44767;DHT22;30487;48.716;9.272;2024-03-23T07:41:19;11.10;99.90
44767;DHT22;30487;48.716;9.272;2024-03-23T07:43:45;11.20;99.90
44767;DHT22;30487;48.716;9.272;2024-03-23T07:46:11;11.20;99.90
44767;DHT22;30487;48.716;9.272;2024-03-23T07:48:38;11.30;99.90
44767;DHT22;30487;48.716;9.272;2024-03-23T07:51:07;11.50;99.90
44767;DHT22;30487;48.716;9.272;2024-03-23T07:53:33;11.60;99.90
44767;DHT22;30487;48.716;9.272;2024-03-23T07:56:06;11.60;99.90
44767;DHT22;30487;48.716;9.272;2024-03-23T07:58:32;11.50;99.90
44767;DHT22;30487;48.716;9.272;2024-03-23T08:01:10;11.40;99.90
44767;DHT22;30487;48.716;9.272;2024-03-23T08:03:40;11.30;99.90
44767;DHT22;30487;48.716;9.272;2024-03-23T08:06:16;11.20;99.90
44767;DHT22;30487;48.716;9.272;2024-03-23T08:08:46;11.10;99.90
44767;DHT22;30487;48.716;9.272;2024-03-23T08:11:12;11.00;99.90
44767;DHT22;30487;48.716;9.272;2024-03-23T08:13:39;10.90;99.90
44767;DHT22;30487;48.716;9.272;2024-03-23T08:16:05;10.90;99.90
44767;DHT22;30487;48.716;9.272;2024-03-23T08:18:31;10.70;99.90
44767;DHT22;30487;48.716;9.272;2024-03-23T08:21:00;10.50;99.90
44767;DHT22;30487;48.716;9.272;2024-03-23T08:23:28;10.40;99.90
44767;DHT22;30487;48.716;9.272;2024-03-23T08:26:14;10.30;99.90
44767;DHT22;30487;48.716;9.272;2024-03-23T08:28:40;10.30;99.90
44767;DHT22;30487;48.716;9.272;2024-03-23T08:31:07;10.30;99.90
44767;DHT22;30487;48.716;9.272;2024-03-23T08:33:34;10.30;99.90
44767;DHT22;30487;48.716;9.272;2024-03-23T08:36:04;10.30;99.90
44767;DHT22;30487;48.716;9.272;2024-03-23T08:38:30;10.20;99.90
44767;DHT22;30487;48.716;9.272;2024-03-23T08:41:04;10.20;99.90
44767;DHT22;30487;48.716;9.272;2024-03-23T08:43:31;10.30;99.90
44767;DHT22;30487;48.716;9.272;2024-03-23T08:46:13;10.70;99.90
44767;DHT22;30487;48.716;9.272;2024-03-23T08:48:48;11.70;99.90
44767;DHT22;30487;48.716;9.272;2024-03-23T08:51:15;12.80;99.90
44767;DHT22;30487;48.716;9.272;2024-03-23T08:53:41;13.60;99.90
44767;DHT22;30487;48.716;9.272;2024-03-23T08:56:08;13.70;99.90
44767;DHT22;30487;48.716;9.272;2024-03-23T08:58:35;13.30;99.90
44767;DHT22;30487;48.716;9.272;2024-03-23T09:01:08;13.00;99.90
44767;DHT22;30487;48.716;9.272;2024-03-23T09:03:35;12.50;99.90
44767;DHT22;30487;48.716;9.272;2024-03-23T09:06:02;12.20;99.90
44767;DHT22;30487;48.716;9.272;2024-03-23T09:08:27;12.10;99.90
44767;DHT22;30487;48.716;9.272;2024-03-23T09:10:53;11.90;99.90
44767;DHT22;30487;48.716;9.272;2024-03-23T09:13:19;11.60;99.90
44767;DHT22;30487;48.716;9.272;2024-03-23T09:15:51;11.40;99.90
44767;DHT22;30487;48.716;9.272;2024-03-23T09:18:17;11.20;99.90
44767;DHT22;30487;48.716;9.272;2024-03-23T09:20:43;11.00;99.90
44767;DHT22;30487;48.716;9.272;2024-03-23T09:23:08;10.90;99.90
44767;DHT22;30487;48.716;9.272;2024-03-23T09:25:38;10.80;99.90
44767;DHT22;30487;48.716;9.272;2024-03-23T09:28:05;10.90;99.90
44767;DHT22;30487;48.716;9.272;2024-03-23T09:30:35;10.90;99.90
44767;DHT22;30487;48.716;9.272;2024-03-23T09:33:02;11.10;99.90
44767;DHT22;30487;48.716;9.272;2024-03-23T09:35:28;11.10;99.90
44767;DHT22;30487;48.716;9.272;2024-03-23T09:37:54;11.10;99.90
44767;DHT22;30487;48.716;9.272;2024-03-23T09:40:20;11.30;99.90
44767;DHT22;30487;48.716;9.272;2024-03-23T09:42:50;11.40;99.90
44767;DHT22;30487;48.716;9.272;2024-03-23T09:45:27;11.60;99.90
44767;DHT22;30487;48.716;9.272;2024-03-23T09:47:55;12.00;99.90
44767;DHT22;30487;48.716;9.272;2024-03-23T09:50:21;12.30;99.90
44767;DHT22;30487;48.716;9.272;2024-03-23T09:52:47;12.40;99.80
44767;DHT22;30487;48.716;9.272;2024-03-23T09:55:13;12.40;99.20
44767;DHT22;30487;48.716;9.272;2024-03-23T09:57:42;12.30;98.30
44767;DHT22;30487;48.716;9.272;2024-03-23T10:00:08;12.10;98.10
44767;DHT22;30487;48.716;9.272;2024-03-23T10:02:34;12.00;97.40
44767;DHT22;30487;48.716;9.272;2024-03-23T10:05:00;11.80;97.60
44767;DHT22;30487;48.716;9.272;2024-03-23T10:07:26;11.70;98.60
44767;DHT22;30487;48.716;9.272;2024-03-23T10:09:54;11.60;98.40
44767;DHT22;30487;48.716;9.272;2024-03-23T10:12:20;11.60;98.00
44767;DHT22;30487;48.716;9.272;2024-03-23T10:14:46;11.70;97.90
44767;DHT22;30487;48.716;9.272;2024-03-23T10:17:19;12.00;97.90
44767;DHT22;30487;48.716;9.272;2024-03-23T10:19:49;12.50;97.50
44767;DHT22;30487;48.716;9.272;2024-03-23T10:24:43;12.70;96.80
44767;DHT22;30487;48.716;9.272;2024-03-23T10:27:08;12.70;96.90
44767;DHT22;30487;48.716;9.272;2024-03-23T10:29:34;12.70;97.10
44767;DHT22;30487;48.716;9.272;2024-03-23T10:32:10;12.80;96.90
44767;DHT22;30487;48.716;9.272;2024-03-23T10:34:36;12.70;97.30
44767;DHT22;30487;48.716;9.272;2024-03-23T10:37:03;12.70;97.00
44767;DHT22;30487;48.716;9.272;2024-03-23T10:39:36;12.60;96.70
44767;DHT22;30487;48.716;9.272;2024-03-23T10:42:07;12.70;95.70
44767;DHT22;30487;48.716;9.272;2024-03-23T10:44:40;13.10;93.90
44767;DHT22;30487;48.716;9.272;2024-03-23T10:47:05;13.50;93.30
44767;DHT22;30487;48.716;9.272;2024-03-23T10:49:35;13.50;93.30
44767;DHT22;30487;48.716;9.272;2024-03-23T10:52:03;13.20;92.40
44767;DHT22;30487;48.716;9.272;2024-03-23T10:54:30;12.90;93.10
44767;DHT22;30487;48.716;9.272;2024-03-23T10:57:12;12.50;93.80
44767;DHT22;30487;48.716;9.272;2024-03-23T10:59:39;12.30;94.30
44767;DHT22;30487;48.716;9.272;2024-03-23T11:02:05;12.00;94.40
44767;DHT22;30487;48.716;9.272;2024-03-23T11:04:37;11.80;96.40
44767;DHT22;30487;48.716;9.272;2024-03-23T11:09:53;10.90;99.90
44767;DHT22;30487;48.716;9.272;2024-03-23T11:12:26;10.40;99.90
44767;DHT22;30487;48.716;9.272;2024-03-23T11:17:26;9.90;99.90
44767;DHT22;30487;48.716;9.272;2024-03-23T11:20:03;9.40;99.90
44767;DHT22;30487;48.716;9.272;2024-03-23T11:22:38;9.30;99.90
44767;DHT22;30487;48.716;9.272;2024-03-23T11:25:18;9.40;99.90
44767;DHT22;30487;48.716;9.272;2024-03-23T11:27:47;9.50;99.90
44767;DHT22;30487;48.716;9.272;2024-03-23T11:30:14;9.50;99.90
44767;DHT22;30487;48.716;9.272;2024-03-23T11:32:44;9.70;99.90
44767;DHT22;30487;48.716;9.272;2024-03-23T11:35:10;9.80;99.90
44767;DHT22;30487;48.716;9.272;2024-03-23T11:37:37;10.00;99.90
44767;DHT22;30487;48.716;9.272;2024-03-23T11:40:17;10.40;99.90
44767;DHT22;30487;48.716;9.272;2024-03-23T11:42:43;11.30;99.90
44767;DHT22;30487;48.716;9.272;2024-03-23T11:45:09;11.40;99.90
44767;DHT22;30487;48.716;9.272;2024-03-23T11:47:35;11.30;99.90
44767;DHT22;30487;48.716;9.272;2024-03-23T11:50:00;11.30;99.90
44767;DHT22;30487;48.716;9.272;2024-03-23T11:52:26;11.50;99.90
44767;DHT22;30487;48.716;9.272;2024-03-23T11:54:51;11.70;99.90
44767;DHT22;30487;48.716;9.272;2024-03-23T11:57:28;11.70;99.90
44767;DHT22;30487;48.716;9.272;2024-03-23T11:59:53;11.80;99.90
44767;DHT22;30487;48.716;9.272;2024-03-23T12:02:19;11.70;99.90
44767;DHT22;30487;48.716;9.272;2024-03-23T12:04:44;11.60;99.90
44767;DHT22;30487;48.716;9.272;2024-03-23T12:07:18;11.50;99.90
44767;DHT22;30487;48.716;9.272;2024-03-23T12:10:02;11.40;99.90
44767;DHT22;30487;48.716;9.272;2024-03-23T12:12:28;11.40;99.90
44767;DHT22;30487;48.716;9.272;2024-03-23T12:15:04;11.40;99.90
44767;DHT22;30487;48.716;9.272;2024-03-23T12:17:31;11.50;99.90
44767;DHT22;30487;48.716;9.272;2024-03-23T12:19:57;11.60;99.90
44767;DHT22;30487;48.716;9.272;2024-03-23T12:22:23;11.70;99.90
44767;DHT22;30487;48.716;9.272;2024-03-23T12:24:49;11.60;99.40
44767;DHT22;30487;48.716;9.272;2024-03-23T12:27:14;11.70;98.90
44767;DHT22;30487;48.716;9.272;2024-03-23T12:29:40;11.60;99.00
44767;DHT22;30487;48.716;9.272;2024-03-23T12:32:11;11.50;98.70
44767;DHT22;30487;48.716;9.272;2024-03-23T12:34:37;11.20;98.40
44767;DHT22;30487;48.716;9.272;2024-03-23T12:37:03;11.10;98.60
44767;DHT22;30487;48.716;9.272;2024-03-23T12:39:28;10.90;97.90
44767;DHT22;30487;48.716;9.272;2024-03-23T12:41:54;10.80;97.50
44767;DHT22;30487;48.716;9.272;2024-03-23T12:44:19;10.80;97.70
44767;DHT22;30487;48.716;9.272;2024-03-23T12:46:45;10.70;97.20
44767;DHT22;30487;48.716;9.272;2024-03-23T12:49:11;10.70;97.30
44767;DHT22;30487;48.716;9.272;2024-03-23T12:51:37;10.70;97.30
44767;DHT22;30487;48.716;9.272;2024-03-23T12:54:02;10.80;97.20
44767;DHT22;30487;48.716;9.272;2024-03-23T12:56:28;11.00;97.00
44767;DHT22;30487;48.716;9.272;2024-03-23T12:58:54;11.00;96.50
44767;DHT22;30487;48.716;9.272;2024-03-23T13:01:25;11.00;96.90
44767;DHT22;30487;48.716;9.272;2024-03-23T13:03:51;10.90;97.10
44767;DHT22;30487;48.716;9.272;2024-03-23T13:06:17;10.90;97.00
44767;DHT22;30487;48.716;9.272;2024-03-23T13:08:46;10.90;97.40
44767;DHT22;30487;48.716;9.272;2024-03-23T13:11:12;10.90;97.70
44767;DHT22;30487;48.716;9.272;2024-03-23T13:13:38;11.30;98.00
44767;DHT22;30487;48.716;9.272;2024-03-23T13:16:04;12.10;97.50
44767;DHT22;30487;48.716;9.272;2024-03-23T13:18:31;12.60;96.50
44767;DHT22;30487;48.716;9.272;2024-03-23T13:20:57;12.50;95.90
44767;DHT22;30487;48.716;9.272;2024-03-23T13:23:23;12.30;95.50
44767;DHT22;30487;48.716;9.272;2024-03-23T13:25:53;12.10;95.80
44767;DHT22;30487;48.716;9.272;2024-03-23T13:28:20;13.00;95.90
44767;DHT22;30487;48.716;9.272;2024-03-23T13:30:56;13.70;94.50
44767;DHT22;30487;48.716;9.272;2024-03-23T13:33:23;13.70;94.50
44767;DHT22;30487;48.716;9.272;2024-03-23T13:35:52;13.40;93.70
44767;DHT22;30487;48.716;9.272;2024-03-23T13:38:18;12.80;93.00
44767;DHT22;30487;48.716;9.272;2024-03-23T13:41:02;12.40;92.40
44767;DHT22;30487;48.716;9.272;2024-03-23T13:43:30;12.50;91.50
44767;DHT22;30487;48.716;9.272;2024-03-23T13:45:57;12.90;90.50
44767;DHT22;30487;48.716;9.272;2024-03-23T13:48:23;13.40;87.60
44767;DHT22;30487;48.716;9.272;2024-03-23T13:51:03;14.30;85.80
44767;DHT22;30487;48.716;9.272;2024-03-23T13:53:29;15.00;82.70
44767;DHT22;30487;48.716;9.272;2024-03-23T13:55:55;15.90;82.40
44767;DHT22;30487;48.716;9.272;2024-03-23T13:58:21;16.40;85.80
44767;DHT22;30487;48.716;9.272;2024-03-23T14:00:47;16.80;88.60
44767;DHT22;30487;48.716;9.272;2024-03-23T14:03:13;17.10;80.20
44767;DHT22;30487;48.716;9.272;2024-03-23T14:05:39;17.30;76.60
44767;DHT22;30487;48.716;9.272;2024-03-23T14:08:06;17.30;75.50
44767;DHT22;30487;48.716;9.272;2024-03-23T14:10:32;17.30;76.90
44767;DHT22;30487;48.716;9.272;2024-03-23T14:12:58;16.90;75.50
44767;DHT22;30487;48.716;9.272;2024-03-23T14:15:26;16.70;75.00
44767;DHT22;30487;48.716;9.272;2024-03-23T14:17:51;15.80;75.90
44767;DHT22;30487;48.716;9.272;2024-03-23T14:20:17;14.80;78.00
44767;DHT22;30487;48.716;9.272;2024-03-23T14:22:42;13.90;80.80
44767;DHT22;30487;48.716;9.272;2024-03-23T14:25:09;13.40;83.60
44767;DHT22;30487;48.716;9.272;2024-03-23T14:27:34;13.00;86.80
44767;DHT22;30487;48.716;9.272;2024-03-23T14:30:03;13.00;86.90
44767;DHT22;30487;48.716;9.272;2024-03-23T14:32:30;13.40;86.30
44767;DHT22;30487;48.716;9.272;2024-03-23T14:35:02;14.30;87.40
44767;DHT22;30487;48.716;9.272;2024-03-23T14:37:27;14.60;87.00
44767;DHT22;30487;48.716;9.272;2024-03-23T14:39:55;14.30;84.00
44767;DHT22;30487;48.716;9.272;2024-03-23T14:42:21;14.00;85.60
44767;DHT22;30487;48.716;9.272;2024-03-23T14:44:47;14.10;87.50
44767;DHT22;30487;48.716;9.272;2024-03-23T14:47:13;14.60;86.60
44767;DHT22;30487;48.716;9.272;2024-03-23T14:49:38;14.50;85.60
44767;DHT22;30487;48.716;9.272;2024-03-23T14:52:04;14.50;85.60
44767;DHT22;30487;48.716;9.272;2024-03-23T14:54:29;14.60;87.90
44767;DHT22;30487;48.716;9.272;2024-03-23T14:56:55;15.00;84.70
44767;DHT22;30487;48.716;9.272;2024-03-23T14:59:23;15.20;83.90
44767;DHT22;30487;48.716;9.272;2024-03-23T15:01:49;14.80;84.40
44767;DHT22;30487;48.716;9.272;2024-03-23T15:04:15;14.50;84.20
44767;DHT22;30487;48.716;9.272;2024-03-23T15:06:40;14.10;82.70
44767;DHT22;30487;48.716;9.272;2024-03-23T15:09:07;13.70;85.20
44767;DHT22;30487;48.716;9.272;2024-03-23T15:11:37;13.20;85.50
44767;DHT22;30487;48.716;9.272;2024-03-23T15:14:02;12.70;86.80
44767;DHT22;30487;48.716;9.272;2024-03-23T15:16:28;12.20;90.70
44767;DHT22;30487;48.716;9.272;2024-03-23T15:18:54;11.90;92.30
44767;DHT22;30487;48.716;9.272;2024-03-23T15:21:19;11.70;92.90
44767;DHT22;30487;48.716;9.272;2024-03-23T15:23:47;11.70;93.80
44767;DHT22;30487;48.716;9.272;2024-03-23T15:26:13;11.80;93.90
44767;DHT22;30487;48.716;9.272;2024-03-23T15:28:38;11.80;93.80
44767;DHT22;30487;48.716;9.272;2024-03-23T15:31:27;11.70;93.10
44767;DHT22;30487;48.716;9.272;2024-03-23T15:33:52;11.70;93.30
44767;DHT22;30487;48.716;9.272;2024-03-23T15:36:18;11.80;93.80
44767;DHT22;30487;48.716;9.272;2024-03-23T15:38:44;11.80;93.80
44767;DHT22;30487;48.716;9.272;2024-03-23T15:41:10;11.90;93.80
44767;DHT22;30487;48.716;9.272;2024-03-23T15:43:36;12.00;93.50
44767;DHT22;30487;48.716;9.272;2024-03-23T15:46:05;12.10;92.70
44767;DHT22;30487;48.716;9.272;2024-03-23T15:48:31;12.00;92.80
44767;DHT22;30487;48.716;9.272;2024-03-23T15:50:59;11.80;92.60
44767;DHT22;30487;48.716;9.272;2024-03-23T15:53:25;11.60;92.70
44767;DHT22;30487;48.716;9.272;2024-03-23T15:55:59;11.50;92.70
44767;DHT22;30487;48.716;9.272;2024-03-23T15:58:25;11.50;92.80
44767;DHT22;30487;48.716;9.272;2024-03-23T16:00:57;11.40;92.80
44767;DHT22;30487;48.716;9.272;2024-03-23T16:03:24;11.30;92.50
44767;DHT22;30487;48.716;9.272;2024-03-23T16:05:57;11.20;93.00
44767;DHT22;30487;48.716;9.272;2024-03-23T16:08:24;11.10;92.90
44767;DHT22;30487;48.716;9.272;2024-03-23T16:10:50;11.00;93.00
44767;DHT22;30487;48.716;9.272;2024-03-23T16:13:16;10.80;92.80
44767;DHT22;30487;48.716;9.272;2024-03-23T16:15:43;10.70;93.20
44767;DHT22;30487;48.716;9.272;2024-03-23T16:18:09;10.80;93.20
44767;DHT22;30487;48.716;9.272;2024-03-23T16:20:34;10.80;95.30
44767;DHT22;30487;48.716;9.272;2024-03-23T16:23:00;11.10;93.80
44767;DHT22;30487;48.716;9.272;2024-03-23T16:25:26;11.10;92.60
44767;DHT22;30487;48.716;9.272;2024-03-23T16:27:52;11.00;92.00
44767;DHT22;30487;48.716;9.272;2024-03-23T16:30:18;10.90;92.30
44767;DHT22;30487;48.716;9.272;2024-03-23T16:32:46;10.80;92.00